createdAt,value
2017-09-19T03:31:11.337Z,12.10
2017-09-19T03:33:38.928Z,12.10
2017-09-19T03:36:07.097Z,12.10
2017-09-19T03:38:34.698Z,12.10
2017-09-19T03:41:03.058Z,12.00
2017-09-19T03:43:30.665Z,12.00
2017-09-19T03:45:58.264Z,12.00
2017-09-19T03:48:26.333Z,12.00
2017-09-19T03:50:53.966Z,12.00
2017-09-19T03:53:21.572Z,12.00
2017-09-19T03:55:49.535Z,12.00
2017-09-19T03:58:17.155Z,12.10
2017-09-19T04:00:44.762Z,12.20
2017-09-19T04:03:13.890Z,12.00
2017-09-19T04:05:41.484Z,12.00
2017-09-19T04:08:09.093Z,12.00
2017-09-19T04:10:37.468Z,12.20
2017-09-19T04:13:05.838Z,12.00
2017-09-19T04:15:34.588Z,11.90
2017-09-19T04:18:02.192Z,11.90
2017-09-19T04:20:30.560Z,11.90
2017-09-19T04:22:58.680Z,11.90
2017-09-19T04:25:26.288Z,12.00
2017-09-19T04:27:53.973Z,12.10
2017-09-19T04:30:21.997Z,12.10
2017-09-19T04:32:49.667Z,12.10
2017-09-19T04:35:17.262Z,12.00
2017-09-19T04:37:45.305Z,12.00
2017-09-19T04:40:12.896Z,11.90
2017-09-19T04:42:41.251Z,11.80
2017-09-19T04:45:09.310Z,11.80
2017-09-19T04:47:36.909Z,11.80
2017-09-19T04:50:05.300Z,11.80
2017-09-19T04:52:33.297Z,11.70
2017-09-19T04:55:01.665Z,11.90
2017-09-19T04:57:29.267Z,11.90
2017-09-19T04:59:56.876Z,12.00
2017-09-19T05:02:24.480Z,12.00
2017-09-19T05:04:52.544Z,12.10
2017-09-19T05:07:20.135Z,12.10
2017-09-19T05:09:48.502Z,12.10
2017-09-19T05:12:16.550Z,12.10
2017-09-19T05:14:44.139Z,12.10
2017-09-19T05:17:11.733Z,12.20
2017-09-19T05:19:39.336Z,12.30
2017-09-19T05:22:06.939Z,12.20
2017-09-19T05:24:34.969Z,12.10
2017-09-19T05:27:02.571Z,12.00
2017-09-19T05:29:30.164Z,12.00
2017-09-19T05:31:57.782Z,12.10
2017-09-19T05:34:26.149Z,12.20
2017-09-19T05:36:55.027Z,12.30
2017-09-19T05:39:22.640Z,12.30
2017-09-19T05:41:50.249Z,12.40
2017-09-19T05:44:18.353Z,12.40
2017-09-19T05:46:46.043Z,12.40
2017-09-19T05:49:13.624Z,12.50
2017-09-19T05:51:41.233Z,12.50
2017-09-19T05:54:09.588Z,12.60
2017-09-19T05:56:37.559Z,12.60
2017-09-19T05:59:05.155Z,12.60
2017-09-19T06:01:32.767Z,12.70
2017-09-19T06:04:00.835Z,12.70
2017-09-19T06:06:28.437Z,12.70
2017-09-19T06:09:09.050Z,12.80
2017-09-19T06:11:36.649Z,12.70
2017-09-19T06:14:05.010Z,12.70
2017-09-19T06:16:32.983Z,12.70
2017-09-19T06:19:00.584Z,12.70
2017-09-19T06:21:28.176Z,12.70
2017-09-19T06:23:56.256Z,12.70
2017-09-19T06:26:23.841Z,12.70
2017-09-19T06:28:52.195Z,12.70
2017-09-19T06:31:19.807Z,12.80
2017-09-19T06:33:47.405Z,12.80
2017-09-19T06:36:15.365Z,12.70
2017-09-19T06:38:42.951Z,12.70
2017-09-19T06:41:10.553Z,12.70
2017-09-19T06:43:38.185Z,12.60
2017-09-19T06:46:05.830Z,12.40
2017-09-19T06:48:33.809Z,12.40
2017-09-19T06:51:01.397Z,12.50
2017-09-19T06:53:29.746Z,12.80
2017-09-19T06:55:57.363Z,12.70
2017-09-19T06:58:24.957Z,12.80
2017-09-19T07:00:53.033Z,12.90
2017-09-19T07:03:20.648Z,13.10
2017-09-19T07:05:48.257Z,13.30
2017-09-19T07:08:15.860Z,13.40
2017-09-19T07:10:43.481Z,13.50
2017-09-19T07:13:11.548Z,13.70
2017-09-19T07:15:39.150Z,13.70
2017-09-19T07:18:06.754Z,13.80
2017-09-19T07:20:34.376Z,13.80
2017-09-19T07:23:01.971Z,13.90
2017-09-19T07:25:29.938Z,14.00
2017-09-19T07:27:57.533Z,14.00
2017-09-19T07:30:25.124Z,14.10
2017-09-19T07:32:52.729Z,14.30
2017-09-19T07:35:20.323Z,14.30
2017-09-19T07:37:48.693Z,14.30
2017-09-19T07:40:16.697Z,14.20
2017-09-19T07:42:44.295Z,14.40
2017-09-19T07:45:11.923Z,14.50
2017-09-19T07:47:39.881Z,14.60
2017-09-19T07:50:07.473Z,14.70
2017-09-19T07:52:35.080Z,14.80
2017-09-19T07:55:03.860Z,14.70
2017-09-19T07:57:31.451Z,14.70
2017-09-19T07:59:59.043Z,14.80
2017-09-19T08:02:26.852Z,14.90
2017-09-19T08:04:55.218Z,15.00
2017-09-19T08:07:23.281Z,15.00
2017-09-19T08:09:50.897Z,14.90
2017-09-19T08:12:18.488Z,14.90
2017-09-19T08:14:46.108Z,15.00
2017-09-19T08:17:13.708Z,14.90
2017-09-19T08:19:41.710Z,14.90
2017-09-19T08:22:09.309Z,15.00
2017-09-19T08:24:36.930Z,15.20
2017-09-19T08:27:05.316Z,15.40
2017-09-19T08:29:33.681Z,15.40
2017-09-19T08:32:01.744Z,15.40
2017-09-19T08:34:29.333Z,15.50
2017-09-19T08:36:57.696Z,15.70
2017-09-19T08:39:25.332Z,15.70
2017-09-19T08:41:52.945Z,15.60
2017-09-19T08:44:20.970Z,15.70
2017-09-19T08:46:48.610Z,15.90
2017-09-19T08:49:16.221Z,15.90
2017-09-19T08:51:44.572Z,15.90
2017-09-19T08:54:12.174Z,15.90
2017-09-19T08:56:40.201Z,15.90
2017-09-19T08:59:07.785Z,15.90
2017-09-19T09:01:36.150Z,15.90
2017-09-19T09:04:03.788Z,15.90
2017-09-19T09:06:31.424Z,15.90
2017-09-19T09:08:59.428Z,16.20
2017-09-19T09:11:27.027Z,16.40
2017-09-19T09:13:55.389Z,16.90
2017-09-19T09:16:23.793Z,16.40
2017-09-19T09:18:51.413Z,16.40
2017-09-19T09:21:19.483Z,16.50
2017-09-19T09:23:47.074Z,16.10
2017-09-19T09:26:15.454Z,16.80
2017-09-19T09:28:43.840Z,17.10
2017-09-19T09:31:11.459Z,17.10
2017-09-19T09:33:39.467Z,17.40
2017-09-19T09:36:07.834Z,17.50
2017-09-19T09:38:36.215Z,17.50
2017-09-19T09:41:04.628Z,17.40
2017-09-19T09:43:32.230Z,17.30
2017-09-19T09:46:00.212Z,17.40
2017-09-19T09:48:27.876Z,17.50
2017-09-19T09:50:55.470Z,17.00
2017-09-19T09:53:23.492Z,17.00
2017-09-19T09:55:51.089Z,17.30
2017-09-19T09:58:18.685Z,17.60
2017-09-19T10:00:46.301Z,17.80
2017-09-19T10:03:14.661Z,17.90
2017-09-19T10:05:42.738Z,17.90
2017-09-19T10:08:11.108Z,17.70
2017-09-19T10:10:38.793Z,17.70
2017-09-19T10:13:07.180Z,17.70
2017-09-19T10:15:34.777Z,17.70
2017-09-19T10:18:02.871Z,17.80
2017-09-19T10:20:30.503Z,17.90
2017-09-19T10:22:58.094Z,17.70
2017-09-19T10:25:26.064Z,17.60
2017-09-19T10:27:53.654Z,17.50
2017-09-19T10:30:22.026Z,17.40
2017-09-19T10:32:50.780Z,17.30
2017-09-19T10:35:18.392Z,17.30
2017-09-19T10:37:46.069Z,17.30
2017-09-19T10:40:13.698Z,17.20
2017-09-19T10:42:42.056Z,17.20
2017-09-19T10:45:10.112Z,17.20
2017-09-19T10:47:37.722Z,17.20
2017-09-19T10:50:06.078Z,17.30
2017-09-19T10:52:34.473Z,17.30
2017-09-19T10:55:02.072Z,17.30
2017-09-19T10:57:30.280Z,17.30
2017-09-19T10:59:59.568Z,17.00
2017-09-19T11:02:27.160Z,16.90
2017-09-19T11:04:55.543Z,17.60
2017-09-19T11:07:23.913Z,17.90
2017-09-19T11:09:52.666Z,18.30
2017-09-19T11:12:20.302Z,18.30
2017-09-19T11:14:47.901Z,18.80
2017-09-19T11:17:15.551Z,19.20
2017-09-19T11:19:43.217Z,19.30
2017-09-19T11:22:11.201Z,19.40
2017-09-19T11:24:38.801Z,19.40
2017-09-19T11:27:06.397Z,19.40
2017-09-19T11:29:34.409Z,19.20
2017-09-19T11:32:02.776Z,18.90
2017-09-19T11:34:30.386Z,18.90
2017-09-19T11:36:58.488Z,18.70
2017-09-19T11:39:26.857Z,18.30
2017-09-19T11:41:54.456Z,18.40
2017-09-19T11:44:23.373Z,18.60
2017-09-19T11:46:50.968Z,18.60
2017-09-19T11:49:18.585Z,18.90
2017-09-19T11:51:46.977Z,19.40
2017-09-19T11:54:14.575Z,19.30
2017-09-19T11:56:42.555Z,19.40
2017-09-19T11:59:10.157Z,19.50
2017-09-19T12:01:38.508Z,19.60
2017-09-19T12:04:06.465Z,19.60
2017-09-19T12:06:34.053Z,19.60
2017-09-19T12:09:02.406Z,19.40
2017-09-19T12:11:30.361Z,19.40
2017-09-19T12:13:58.729Z,18.90
2017-09-19T12:16:26.291Z,18.90
2017-09-19T12:18:53.895Z,18.90
2017-09-19T12:21:22.259Z,19.00
2017-09-19T12:23:50.348Z,19.00
2017-09-19T12:26:18.719Z,18.70
2017-09-19T12:28:47.089Z,18.80
2017-09-19T12:31:14.696Z,18.70
2017-09-19T12:33:42.304Z,18.90
2017-09-19T12:36:10.270Z,19.10
2017-09-19T12:38:37.856Z,18.90
2017-09-19T12:41:06.217Z,19.00
2017-09-19T12:43:34.589Z,19.00
2017-09-19T12:46:02.193Z,19.00
2017-09-19T12:48:30.216Z,19.10
2017-09-19T12:50:57.824Z,18.90
2017-09-19T12:53:25.414Z,18.20
2017-09-19T12:55:53.403Z,18.20
2017-09-19T12:58:21.008Z,18.00
2017-09-19T13:00:48.655Z,18.10
2017-09-19T13:03:17.063Z,17.80
2017-09-19T13:05:44.657Z,17.80
2017-09-19T13:08:12.632Z,17.40
2017-09-19T13:10:40.247Z,17.40
2017-09-19T13:13:07.853Z,17.40
2017-09-19T13:15:35.935Z,17.30
2017-09-19T13:18:03.552Z,17.50
2017-09-19T13:20:31.190Z,17.50
2017-09-19T13:22:59.113Z,17.70
2017-09-19T13:25:26.735Z,18.00
2017-09-19T13:27:54.352Z,18.30
2017-09-19T13:30:22.066Z,18.60
2017-09-19T13:33:01.541Z,18.80
2017-09-19T13:35:29.156Z,18.90
2017-09-19T13:37:56.776Z,19.10
2017-09-19T13:40:24.719Z,19.10
2017-09-19T13:42:52.340Z,18.90
2017-09-19T13:45:19.938Z,18.70
2017-09-19T13:47:48.114Z,18.40
2017-09-19T13:50:15.748Z,18.20
2017-09-19T13:52:43.360Z,18.00
2017-09-19T13:55:12.153Z,17.80
2017-09-19T13:57:40.619Z,17.60
2017-09-19T14:00:08.532Z,17.40
2017-09-19T14:02:36.125Z,17.30
2017-09-19T14:05:03.724Z,17.20
2017-09-19T14:07:32.121Z,17.10
2017-09-19T14:10:00.479Z,17.10
2017-09-19T14:12:29.249Z,17.10
2017-09-19T14:14:56.851Z,17.00
2017-09-19T14:17:24.459Z,17.10
2017-09-19T14:19:52.082Z,17.00
2017-09-19T14:22:19.665Z,17.10
2017-09-19T14:24:47.561Z,17.20
2017-09-19T14:27:15.163Z,17.30
2017-09-19T14:29:42.846Z,17.30
2017-09-19T14:32:10.477Z,17.30
2017-09-19T14:34:38.857Z,17.30
2017-09-19T14:37:06.855Z,17.30
2017-09-19T14:39:34.478Z,17.40
2017-09-19T14:42:02.864Z,17.40
2017-09-19T14:44:31.241Z,17.40
2017-09-19T14:46:58.846Z,17.30
2017-09-19T14:49:26.728Z,17.40
2017-09-19T14:51:54.342Z,17.40
2017-09-19T14:54:21.970Z,17.30
2017-09-19T14:56:49.620Z,17.10
2017-09-19T14:59:17.259Z,17.00
2017-09-19T15:01:45.382Z,16.90
2017-09-19T15:04:13.767Z,17.00
2017-09-19T15:06:42.129Z,17.30
2017-09-19T15:09:10.871Z,17.60
2017-09-19T15:11:38.596Z,17.50
2017-09-19T15:14:06.202Z,17.90
2017-09-19T15:16:34.303Z,18.10
2017-09-19T15:19:01.912Z,18.20
2017-09-19T15:21:29.512Z,18.30
2017-09-19T15:23:57.129Z,18.40
2017-09-19T15:26:24.735Z,18.40
2017-09-19T15:28:52.701Z,18.50
2017-09-19T15:31:20.293Z,18.50
2017-09-19T15:33:48.688Z,18.30
2017-09-19T15:36:16.324Z,18.30
2017-09-19T15:38:44.762Z,18.20
2017-09-19T15:41:13.476Z,18.20
2017-09-19T15:43:41.076Z,18.20
2017-09-19T15:46:08.672Z,18.00
2017-09-19T15:48:36.580Z,17.90
2017-09-19T15:51:04.962Z,17.70
2017-09-19T15:53:33.339Z,17.60
2017-09-19T15:56:02.106Z,17.60
2017-09-19T15:58:29.777Z,17.60
2017-09-19T16:00:57.386Z,17.50
2017-09-19T16:03:25.277Z,17.50
2017-09-19T16:05:52.882Z,17.50
2017-09-19T16:08:21.246Z,17.50
2017-09-19T16:10:49.918Z,17.50
2017-09-19T16:13:17.538Z,17.50
2017-09-19T16:15:45.163Z,17.50
2017-09-19T16:18:13.851Z,17.40
2017-09-19T16:20:42.214Z,17.30
2017-09-19T16:23:09.820Z,17.30
2017-09-19T16:25:37.725Z,17.20
2017-09-19T16:28:05.317Z,17.10
2017-09-19T16:30:34.287Z,17.10
2017-09-19T16:33:01.960Z,17.10
2017-09-19T16:35:30.425Z,17.00
2017-09-19T16:37:58.417Z,17.00
2017-09-19T16:40:26.795Z,16.90
2017-09-19T16:42:55.239Z,16.70
2017-09-19T16:45:22.868Z,16.70
2017-09-19T16:47:50.478Z,16.60
2017-09-19T16:50:18.529Z,16.30
2017-09-19T16:52:46.224Z,16.20
2017-09-19T16:55:14.602Z,16.00
2017-09-19T16:57:42.613Z,16.00
2017-09-19T17:00:10.270Z,15.90
2017-09-19T17:02:37.864Z,15.90
2017-09-19T17:05:05.887Z,16.00
2017-09-19T17:07:33.597Z,15.80
2017-09-19T17:10:01.974Z,15.90
2017-09-19T17:12:29.607Z,15.90
2017-09-19T17:14:57.757Z,16.00
2017-09-19T17:17:26.492Z,15.40
2017-09-19T17:19:54.094Z,15.40
2017-09-19T17:22:22.486Z,15.30
2017-09-19T17:24:50.871Z,15.30
2017-09-19T17:27:18.478Z,15.30
2017-09-19T17:29:46.385Z,15.00
2017-09-19T17:32:14.806Z,15.10
2017-09-19T17:34:42.462Z,15.10
2017-09-19T17:37:10.215Z,15.30
2017-09-19T17:39:37.828Z,15.50
2017-09-19T17:42:05.795Z,15.30
2017-09-19T17:44:33.415Z,15.00
2017-09-19T17:47:01.066Z,14.90
2017-09-19T17:49:29.261Z,15.00
2017-09-19T17:51:56.888Z,15.00
2017-09-19T17:54:25.695Z,14.90
2017-09-19T17:56:53.377Z,14.90
2017-09-19T17:59:21.019Z,14.90
2017-09-19T18:01:48.701Z,15.10
2017-09-19T18:04:16.401Z,15.30
2017-09-19T18:06:45.201Z,15.30
2017-09-19T18:09:14.421Z,15.40
2017-09-19T18:11:42.097Z,15.30
2017-09-19T18:14:09.774Z,15.40
2017-09-19T18:16:39.372Z,15.30
2017-09-19T18:19:10.680Z,15.30
2017-09-19T18:21:40.807Z,15.30
2017-09-19T18:24:12.751Z,15.20
2017-09-19T18:26:40.557Z,15.20
2017-09-19T18:29:08.643Z,15.20
2017-09-19T18:31:37.080Z,15.20
2017-09-19T18:34:05.804Z,15.20
2017-09-19T18:36:33.461Z,15.10
2017-09-19T18:39:01.129Z,15.20
2017-09-19T18:41:29.098Z,15.30
2017-09-19T18:43:56.764Z,15.30
2017-09-19T18:46:24.428Z,15.20
2017-09-19T18:48:52.501Z,15.30
2017-09-19T18:51:20.191Z,15.30
2017-09-19T18:53:48.279Z,15.30
2017-09-19T18:56:15.913Z,15.30
2017-09-19T18:58:43.548Z,15.20
2017-09-19T19:01:11.212Z,15.20
2017-09-19T19:03:39.732Z,15.20
2017-09-19T19:06:07.763Z,15.10
2017-09-19T19:08:35.399Z,15.10
2017-09-19T19:11:03.054Z,15.10
2017-09-19T19:13:31.476Z,15.10
2017-09-19T19:15:59.450Z,15.10
2017-09-19T19:18:27.432Z,15.00
2017-09-19T19:20:55.283Z,14.90
2017-09-19T19:23:22.905Z,14.80
2017-09-19T19:25:51.332Z,15.00
2017-09-19T19:28:19.065Z,14.90
2017-09-19T19:30:47.926Z,15.00
2017-09-19T19:33:16.328Z,15.00
2017-09-19T19:35:44.004Z,15.00
2017-09-19T19:38:12.049Z,15.00
2017-09-19T19:40:39.706Z,15.00
2017-09-19T19:43:07.755Z,15.00
2017-09-19T19:45:35.422Z,15.00
2017-09-19T19:48:03.961Z,15.00
2017-09-19T19:50:31.669Z,15.00
2017-09-19T19:53:00.106Z,15.00
2017-09-19T19:55:28.789Z,15.00
2017-09-19T19:57:56.468Z,14.90
2017-09-19T20:00:24.156Z,14.90
2017-09-19T20:02:53.379Z,14.90
2017-09-19T20:05:21.087Z,14.90
2017-09-19T20:07:48.814Z,14.90
2017-09-19T20:10:17.249Z,14.90
2017-09-19T20:12:44.970Z,14.90
2017-09-19T20:15:12.626Z,14.90
2017-09-19T20:17:41.741Z,14.90
2017-09-19T20:20:09.373Z,14.90
2017-09-19T20:22:37.046Z,14.90
2017-09-19T20:25:04.728Z,14.80
2017-09-19T20:27:32.358Z,14.80
2017-09-19T20:30:01.426Z,14.70
2017-09-19T20:32:29.818Z,14.60
2017-09-19T20:34:58.207Z,14.60
2017-09-19T20:37:25.864Z,14.60
2017-09-19T20:39:53.514Z,14.60
2017-09-19T20:42:22.380Z,14.50
2017-09-19T20:44:50.028Z,14.50
2017-09-19T20:47:17.649Z,14.60
2017-09-19T20:49:45.829Z,14.60
2017-09-19T20:52:13.446Z,14.50
2017-09-19T20:54:41.049Z,14.30
2017-09-19T20:57:09.070Z,14.30
2017-09-19T20:59:36.692Z,14.20
2017-09-19T21:02:04.295Z,14.00
2017-09-19T21:04:37.430Z,14.00
2017-09-19T21:07:10.629Z,14.10
2017-09-19T21:09:43.825Z,14.30
2017-09-19T21:12:17.155Z,14.40
2017-09-19T21:14:51.119Z,14.30
2017-09-19T21:17:24.334Z,14.30
2017-09-19T21:19:51.867Z,14.30
2017-09-19T21:22:19.715Z,14.30
2017-09-19T21:24:48.479Z,14.20
2017-09-19T21:27:16.906Z,14.20
2017-09-19T21:29:44.639Z,14.20
2017-09-19T21:32:13.405Z,13.90
2017-09-19T21:37:15.437Z,13.70
2017-09-19T21:39:43.091Z,13.70
2017-09-19T21:42:10.694Z,13.70
2017-09-19T21:44:38.783Z,13.80
2017-09-19T21:47:06.433Z,13.90
2017-09-19T21:49:34.778Z,13.80
2017-09-19T21:52:02.787Z,13.70
2017-09-19T21:54:30.386Z,13.80
2017-09-19T21:56:57.988Z,13.80
2017-09-19T21:59:25.982Z,13.70
2017-09-19T22:01:53.781Z,13.60
2017-09-19T22:04:21.397Z,13.70
2017-09-19T22:06:49.335Z,13.70
2017-09-19T22:09:16.941Z,13.60
2017-09-19T22:11:44.539Z,13.60
2017-09-19T22:14:12.665Z,13.50
2017-09-19T22:16:40.303Z,13.50
2017-09-19T22:19:07.900Z,13.40
2017-09-19T22:21:35.966Z,13.30
2017-09-19T22:24:03.573Z,13.40
2017-09-19T22:26:31.161Z,13.40
2017-09-19T22:28:59.106Z,13.40
